createdAt,value
2022-10-07T03:49:42.308Z,101616.22
2022-10-07T03:52:08.786Z,101620.28
2022-10-07T03:54:35.331Z,101615.09
2022-10-07T03:57:01.960Z,101611.41
2022-10-07T03:59:28.495Z,101609.56
2022-10-07T04:01:55.046Z,101612.25
2022-10-07T04:04:21.550Z,101603.84
2022-10-07T04:06:48.020Z,101601.78
2022-10-07T04:09:14.684Z,101604.28
2022-10-07T04:11:41.802Z,101602.25
2022-10-07T04:14:08.567Z,101597.72
2022-10-07T04:16:38.091Z,101604.69
2022-10-07T04:19:06.005Z,101594.84
2022-10-07T04:21:33.605Z,101592.59
2022-10-07T04:24:00.290Z,101592.06
2022-10-07T04:26:26.805Z,101578.88
2022-10-07T04:28:53.433Z,101586.66
2022-10-07T04:31:20.158Z,101582.75
2022-10-07T04:33:46.634Z,101588.66
2022-10-07T04:36:13.377Z,101579.00
2022-10-07T04:38:39.935Z,101590.34
2022-10-07T04:41:07.472Z,101587.06
2022-10-07T04:43:34.754Z,101588.78
2022-10-07T04:46:02.793Z,101584.47
2022-10-07T04:48:29.826Z,101577.84
2022-10-07T04:51:01.550Z,101575.41
2022-10-07T04:53:28.271Z,101566.88
2022-10-07T04:55:54.821Z,101576.00
2022-10-07T04:58:21.410Z,101565.22
2022-10-07T05:00:49.215Z,101563.88
2022-10-07T05:03:17.667Z,101561.81
2022-10-07T05:05:46.625Z,101559.50
2022-10-07T05:08:14.837Z,101558.81
2022-10-07T05:10:42.398Z,101552.16
2022-10-07T05:13:14.252Z,101551.91
2022-10-07T05:15:58.649Z,101547.44
2022-10-07T05:18:27.182Z,101548.66
2022-10-07T05:20:54.582Z,101541.94
2022-10-07T05:23:27.890Z,101536.50
2022-10-07T05:26:05.033Z,101534.78
2022-10-07T05:28:31.889Z,101536.53
2022-10-07T05:31:16.871Z,101538.19
2022-10-07T05:33:44.137Z,101529.63
2022-10-07T05:36:12.219Z,101533.88
2022-10-07T05:38:38.985Z,101531.00
2022-10-07T05:41:07.217Z,101529.25
2022-10-07T05:43:36.282Z,101526.53
2022-10-07T05:46:05.453Z,101524.91
2022-10-07T05:48:38.680Z,101525.38
2022-10-07T05:51:07.785Z,101519.78
2022-10-07T05:53:34.925Z,101526.22
2022-10-07T05:56:06.400Z,101524.59
2022-10-07T05:58:35.041Z,101525.16
2022-10-07T06:01:06.156Z,101527.63
2022-10-07T06:03:35.390Z,101524.50
2022-10-07T06:06:01.891Z,101528.25
2022-10-07T06:08:28.634Z,101527.38
2022-10-07T06:11:13.589Z,101538.84
2022-10-07T06:13:40.081Z,101526.94
2022-10-07T06:16:09.121Z,101527.34
2022-10-07T06:18:36.638Z,101522.34
2022-10-07T06:21:03.526Z,101522.94
2022-10-07T06:23:30.691Z,101520.66
2022-10-07T06:26:06.073Z,101524.41
2022-10-07T06:28:42.108Z,101527.94
2022-10-07T06:31:22.504Z,101526.88
2022-10-07T06:33:49.643Z,101528.09
2022-10-07T06:36:16.582Z,101513.63
2022-10-07T06:38:47.298Z,101518.19
2022-10-07T06:41:14.955Z,101523.78
2022-10-07T06:43:41.466Z,101527.94
2022-10-07T06:46:12.896Z,101531.47
2022-10-07T06:48:41.195Z,101525.06
2022-10-07T06:51:12.607Z,101524.44
2022-10-07T06:53:39.220Z,101524.06
2022-10-07T06:56:06.409Z,101521.56
2022-10-07T06:58:33.363Z,101525.53
2022-10-07T07:00:59.995Z,101518.47
2022-10-07T07:03:26.924Z,101518.31
2022-10-07T07:05:55.108Z,101517.25
2022-10-07T07:08:31.990Z,101512.50
2022-10-07T07:11:30.715Z,101515.81
2022-10-07T07:13:57.788Z,101513.75
2022-10-07T07:16:24.705Z,101508.75
2022-10-07T07:18:53.143Z,101513.34
2022-10-07T07:21:20.323Z,101516.28
2022-10-07T07:23:46.893Z,101517.53
2022-10-07T07:26:14.075Z,101515.03
2022-10-07T07:28:43.956Z,101518.97
2022-10-07T07:31:13.960Z,101507.53
2022-10-07T07:33:40.703Z,101506.72
2022-10-07T07:36:12.716Z,101514.13
2022-10-07T07:38:39.991Z,101500.47
2022-10-07T07:41:06.879Z,101508.75
2022-10-07T07:43:33.297Z,101500.84
2022-10-07T07:45:59.796Z,101502.28
2022-10-07T07:48:26.928Z,101503.94
2022-10-07T07:50:57.303Z,101503.47
2022-10-07T07:53:23.756Z,101505.34
2022-10-07T07:55:57.456Z,101503.22
2022-10-07T07:58:24.521Z,101500.69
2022-10-07T08:01:06.075Z,101494.59
2022-10-07T08:03:33.745Z,101490.41
2022-10-07T08:06:04.702Z,101492.22
2022-10-07T08:08:31.588Z,101480.13
2022-10-07T08:11:05.897Z,101487.50
2022-10-07T08:13:33.168Z,101488.69
2022-10-07T08:15:59.680Z,101469.28
2022-10-07T08:18:27.110Z,101474.81
2022-10-07T08:20:58.953Z,101472.22
2022-10-07T08:23:30.520Z,101470.88
2022-10-07T08:25:58.493Z,101457.44
2022-10-07T08:28:26.532Z,101465.09
2022-10-07T08:30:53.843Z,101467.66
2022-10-07T08:33:21.856Z,101462.78
2022-10-07T08:35:57.574Z,101463.06
2022-10-07T08:38:24.041Z,101458.28
2022-10-07T08:40:52.101Z,101456.06
2022-10-07T08:43:22.215Z,101453.28
2022-10-07T08:45:48.836Z,101459.69
2022-10-07T08:48:22.201Z,101455.13
2022-10-07T08:51:06.969Z,101441.91
2022-10-07T08:53:37.724Z,101440.16
2022-10-07T08:56:06.885Z,101435.47
2022-10-07T08:58:43.529Z,101436.34
2022-10-07T09:01:32.096Z,101437.72
2022-10-07T09:04:21.752Z,101428.19
2022-10-07T09:06:58.850Z,101433.88
2022-10-07T09:09:28.273Z,101427.19
2022-10-07T09:11:57.550Z,101420.69
2022-10-07T09:14:39.914Z,101423.75
2022-10-07T09:17:21.857Z,101425.78
2022-10-07T09:19:52.357Z,101417.88
2022-10-07T09:22:21.532Z,101422.56
2022-10-07T09:24:49.333Z,101415.38
2022-10-07T09:27:18.569Z,101411.25
2022-10-07T09:29:45.141Z,101401.94
2022-10-07T09:32:14.207Z,101407.22
2022-10-07T09:34:41.370Z,101405.31
2022-10-07T09:37:14.031Z,101401.28
2022-10-07T09:39:41.646Z,101396.56
2022-10-07T09:42:16.267Z,101391.06
2022-10-07T09:44:42.926Z,101382.78
2022-10-07T09:47:19.374Z,101378.69
2022-10-07T09:49:51.796Z,101382.25
2022-10-07T09:52:26.427Z,101380.28
2022-10-07T09:54:55.267Z,101375.03
2022-10-07T09:57:32.516Z,101374.19
2022-10-07T10:00:25.937Z,101368.53
2022-10-07T10:03:01.214Z,101369.16
2022-10-07T10:05:32.795Z,101366.09
2022-10-07T10:08:03.287Z,101359.78
2022-10-07T10:10:33.255Z,101360.50
2022-10-07T10:13:02.607Z,101365.56
2022-10-07T10:15:38.668Z,101358.63
2022-10-07T10:18:30.851Z,101352.09
2022-10-07T10:21:13.837Z,101345.94
2022-10-07T10:23:53.083Z,101341.13
2022-10-07T10:26:33.574Z,101339.41
2022-10-07T10:29:15.206Z,101331.88
2022-10-07T10:32:00.416Z,101331.13
2022-10-07T10:34:51.370Z,101327.47
2022-10-07T10:37:21.558Z,101322.31
2022-10-07T10:40:15.486Z,101322.72
2022-10-07T10:43:24.027Z,101314.69
2022-10-07T10:46:19.166Z,101301.06
2022-10-07T10:48:59.920Z,101297.81
2022-10-07T10:51:55.763Z,101298.50
2022-10-07T10:54:38.035Z,101286.22
2022-10-07T10:57:13.008Z,101296.41
2022-10-07T11:00:13.224Z,101283.91
2022-10-07T11:02:40.639Z,101280.94
2022-10-07T11:05:24.132Z,101275.25
2022-10-07T11:07:54.376Z,101261.63
2022-10-07T11:10:53.560Z,101254.59
2022-10-07T11:13:30.670Z,101264.41
2022-10-07T11:16:05.004Z,101254.06
2022-10-07T11:18:50.608Z,101244.25
2022-10-07T11:21:26.156Z,101237.94
2022-10-07T11:24:10.388Z,101221.53
2022-10-07T11:26:39.588Z,101225.63
2022-10-07T11:29:18.518Z,101216.91
2022-10-07T11:31:54.952Z,101208.72
2022-10-07T11:34:40.559Z,101210.91
2022-10-07T11:37:20.463Z,101212.00
2022-10-07T11:39:47.684Z,101208.72
2022-10-07T11:42:21.884Z,101197.22
2022-10-07T11:45:10.405Z,101200.53
2022-10-07T11:47:42.892Z,101188.22
2022-10-07T11:50:31.333Z,101187.72
2022-10-07T11:53:08.082Z,101176.78
2022-10-07T11:55:44.219Z,101174.56
2022-10-07T11:58:25.416Z,101162.25
2022-10-07T12:01:28.768Z,101166.59
2022-10-07T12:04:27.659Z,101161.13
2022-10-07T12:07:31.777Z,101148.28
2022-10-07T12:10:04.976Z,101135.41
2022-10-07T12:12:47.262Z,101133.22
2022-10-07T12:15:29.535Z,101131.00
2022-10-07T12:18:04.516Z,101124.94
2022-10-07T12:20:44.972Z,101113.47
2022-10-07T12:23:19.569Z,101112.34
2022-10-07T12:25:48.313Z,101108.50
2022-10-07T12:31:05.135Z,101100.28
2022-10-07T12:33:43.300Z,101094.78
2022-10-07T12:36:18.799Z,101087.63
2022-10-07T12:39:08.059Z,101085.44
2022-10-07T12:41:39.835Z,101085.97
2022-10-07T12:44:23.973Z,101106.72
2022-10-07T12:46:54.014Z,101076.66
2022-10-07T12:49:30.833Z,101068.97
2022-10-07T12:52:04.086Z,101075.94
2022-10-07T12:54:39.263Z,101062.59
2022-10-07T12:57:13.073Z,101068.94
2022-10-07T12:59:58.119Z,101062.91
2022-10-07T13:03:03.513Z,101063.63
2022-10-07T13:05:39.067Z,101053.25
2022-10-07T13:08:18.593Z,101060.03
2022-10-07T13:10:57.571Z,101048.84
2022-10-07T13:13:34.277Z,101051.84
2022-10-07T13:16:13.917Z,101043.09
2022-10-07T13:18:55.241Z,101033.81
2022-10-07T13:21:49.867Z,101045.09
2022-10-07T13:24:21.569Z,101033.66
2022-10-07T13:26:48.177Z,101026.31
2022-10-07T13:29:33.335Z,101026.00
2022-10-07T13:32:05.678Z,101022.47
2022-10-07T13:34:33.262Z,101029.38
2022-10-07T13:37:00.085Z,101018.44
2022-10-07T13:39:26.834Z,101016.53
2022-10-07T13:42:00.003Z,101009.66
2022-10-07T13:44:29.954Z,101000.16
2022-10-07T13:47:00.209Z,101001.25
2022-10-07T13:49:30.718Z,101006.16
2022-10-07T13:52:02.338Z,100997.94
2022-10-07T13:54:32.847Z,100994.09
2022-10-07T13:57:02.504Z,100996.28
2022-10-07T13:59:29.615Z,100994.63
2022-10-07T14:02:01.349Z,100986.97
2022-10-07T14:04:33.626Z,100982.28
2022-10-07T14:07:19.504Z,100977.38
2022-10-07T14:09:58.024Z,100964.72
2022-10-07T14:12:49.062Z,100964.94
2022-10-07T14:15:21.305Z,100956.75
2022-10-07T14:17:51.061Z,100959.47
2022-10-07T14:20:23.580Z,100952.28
2022-10-07T14:22:56.153Z,100949.50
2022-10-07T14:25:32.029Z,100941.84
2022-10-07T14:27:58.959Z,100941.81
2022-10-07T14:30:26.018Z,100940.69
2022-10-07T14:33:30.146Z,100924.13
2022-10-07T14:36:12.077Z,100924.13
2022-10-07T14:38:39.681Z,100916.56
2022-10-07T14:41:06.225Z,100914.38
2022-10-07T14:43:34.191Z,100914.38
2022-10-07T14:46:27.739Z,100913.75
2022-10-07T14:48:55.218Z,100902.84
2022-10-07T14:51:27.619Z,100906.97
2022-10-07T14:54:01.014Z,100906.38
2022-10-07T14:56:31.069Z,100897.94
2022-10-07T14:58:57.827Z,100898.50
2022-10-07T15:01:26.765Z,100887.25
2022-10-07T15:03:53.328Z,100886.16
2022-10-07T15:06:20.718Z,100895.13
2022-10-07T15:08:48.615Z,100886.88
2022-10-07T15:11:20.054Z,100884.09
2022-10-07T15:13:47.946Z,100883.75
2022-10-07T15:16:21.259Z,100875.72
2022-10-07T15:18:52.177Z,100879.84
2022-10-07T15:21:20.306Z,100875.72
2022-10-07T15:23:51.824Z,100874.03
2022-10-07T15:26:19.249Z,100878.97
2022-10-07T15:28:50.368Z,100868.78
2022-10-07T15:31:17.752Z,100872.94
2022-10-07T15:33:44.645Z,100878.41
2022-10-07T15:36:13.206Z,100868.56
2022-10-07T15:38:40.657Z,100865.28
2022-10-07T15:41:07.821Z,100865.56
2022-10-07T15:43:35.383Z,100864.22
2022-10-07T15:46:02.957Z,100857.09
2022-10-07T15:48:29.506Z,100854.94
2022-10-07T15:50:57.654Z,100868.69
2022-10-07T15:53:25.421Z,100858.91
2022-10-07T15:56:00.661Z,100853.66
2022-10-07T15:58:30.458Z,100851.03
2022-10-07T16:01:07.493Z,100852.94
2022-10-07T16:03:40.416Z,100845.69
2022-10-07T16:06:18.923Z,100841.25
2022-10-07T16:08:45.730Z,100841.38
2022-10-07T16:11:13.124Z,100842.25
2022-10-07T16:13:44.770Z,100838.72
2022-10-07T16:16:14.797Z,100839.56
2022-10-07T16:18:43.705Z,100834.13
2022-10-07T16:21:40.538Z,100835.31
2022-10-07T16:24:14.289Z,100833.66
2022-10-07T16:26:41.774Z,100822.28
2022-10-07T16:29:34.875Z,100820.66
2022-10-07T16:32:02.423Z,100816.41
2022-10-07T16:34:29.519Z,100820.00
2022-10-07T16:36:57.833Z,100821.41
2022-10-07T16:39:24.451Z,100821.47
2022-10-07T16:41:52.538Z,100816.84
2022-10-07T16:44:20.296Z,100812.84
2022-10-07T16:46:47.858Z,100816.69
2022-10-07T16:49:17.313Z,100816.72
2022-10-07T16:51:44.655Z,100814.06
2022-10-07T16:54:14.095Z,100806.97
2022-10-07T16:56:46.176Z,100807.81
2022-10-07T16:59:17.458Z,100810.59
2022-10-07T17:01:49.356Z,100811.44
2022-10-07T17:04:16.088Z,100807.88
2022-10-07T17:06:43.933Z,100816.88
2022-10-07T17:09:10.412Z,100815.25
2022-10-07T17:11:37.104Z,100810.34
2022-10-07T17:14:07.491Z,100819.31
2022-10-07T17:16:40.070Z,100819.00
2022-10-07T17:19:07.227Z,100815.09
2022-10-07T17:21:38.040Z,100818.28
2022-10-07T17:24:05.862Z,100805.16
2022-10-07T17:26:32.424Z,100810.53
2022-10-07T17:29:02.250Z,100805.56
2022-10-07T17:31:30.811Z,100797.31
2022-10-07T17:33:58.665Z,100801.06
2022-10-07T17:36:26.850Z,100798.25
2022-10-07T17:38:54.314Z,100800.38
2022-10-07T17:41:22.217Z,100798.72
2022-10-07T17:43:51.301Z,100792.66
2022-10-07T17:46:19.947Z,100804.59
2022-10-07T17:48:52.302Z,100798.63
2022-10-07T17:51:20.529Z,100799.66
2022-10-07T17:53:48.507Z,100797.16
2022-10-07T17:56:15.871Z,100795.19
2022-10-07T17:58:45.933Z,100795.72
2022-10-07T18:01:19.642Z,100794.88
2022-10-07T18:03:51.613Z,100787.50
2022-10-07T18:06:18.715Z,100793.38
2022-10-07T18:08:45.212Z,100786.81
2022-10-07T18:11:11.698Z,100789.03
2022-10-07T18:13:56.597Z,100790.25
2022-10-07T18:16:23.821Z,100795.84
2022-10-07T18:18:55.429Z,100795.81
2022-10-07T18:21:23.950Z,100787.19
2022-10-07T18:23:54.468Z,100787.31
2022-10-07T18:26:20.944Z,100788.28
2022-10-07T18:28:47.668Z,100789.81
2022-10-07T18:31:17.042Z,100790.75
2022-10-07T18:33:44.911Z,100786.19
2022-10-07T18:36:18.693Z,100777.97
2022-10-07T18:38:46.042Z,100775.53
2022-10-07T18:41:17.392Z,100774.41
2022-10-07T18:43:45.609Z,100773.38
2022-10-07T18:46:15.110Z,100774.06
2022-10-07T18:48:43.527Z,100770.59
2022-10-07T18:51:11.591Z,100763.38
2022-10-07T18:53:40.288Z,100761.09
2022-10-07T18:56:10.539Z,100771.22
2022-10-07T18:58:43.156Z,100765.72
2022-10-07T19:01:11.589Z,100768.75
2022-10-07T19:03:38.458Z,100765.28
2022-10-07T19:06:11.184Z,100769.06
2022-10-07T19:08:38.007Z,100767.75
2022-10-07T19:11:06.463Z,100769.50
2022-10-07T19:13:50.553Z,100768.00
2022-10-07T19:16:34.648Z,100765.41
2022-10-07T19:19:04.933Z,100758.97
2022-10-07T19:21:32.338Z,100767.25
2022-10-07T19:24:01.430Z,100769.41
2022-10-07T19:26:32.453Z,100769.97
2022-10-07T19:28:59.524Z,100763.88
2022-10-07T19:31:29.275Z,100766.34
2022-10-07T19:34:02.398Z,100769.53
2022-10-07T19:36:34.055Z,100764.22
2022-10-07T19:39:01.860Z,100761.88
2022-10-07T19:41:30.784Z,100765.19
2022-10-07T19:43:57.999Z,100755.66
2022-10-07T19:46:26.704Z,100762.72
2022-10-07T19:48:55.455Z,100764.34
2022-10-07T19:51:21.974Z,100762.13
2022-10-07T19:53:48.494Z,100761.88
2022-10-07T19:56:16.703Z,100746.47
2022-10-07T19:58:47.994Z,100749.09
2022-10-07T20:01:17.596Z,100750.72
2022-10-07T20:03:44.549Z,100746.38
2022-10-07T20:06:11.353Z,100742.03
2022-10-07T20:08:40.369Z,100743.66
2022-10-07T20:11:08.129Z,100736.59
2022-10-07T20:13:35.934Z,100730.63
2022-10-07T20:16:14.784Z,100740.47
2022-10-07T20:18:41.557Z,100737.91
2022-10-07T20:21:11.240Z,100744.59
2022-10-07T20:23:40.458Z,100742.38
2022-10-07T20:26:08.676Z,100736.03
2022-10-07T20:28:37.722Z,100742.50
2022-10-07T20:31:06.382Z,100736.25
2022-10-07T20:33:40.917Z,100741.53
2022-10-07T20:36:08.483Z,100736.75
2022-10-07T22:16:15.454Z,100656.50
2022-10-07T22:18:49.383Z,100665.38
2022-10-07T22:21:21.655Z,100655.50
2022-10-07T22:23:56.175Z,100645.16
2022-10-07T22:26:25.724Z,100641.66
2022-10-07T22:28:52.500Z,100646.72
2022-10-07T22:31:19.306Z,100633.19
2022-10-07T22:33:51.859Z,100637.06
2022-10-07T22:36:19.276Z,100636.94
2022-10-07T22:38:45.919Z,100637.44
2022-10-07T22:41:14.143Z,100639.44
2022-10-07T22:43:44.255Z,100636.16
2022-10-07T22:46:26.907Z,100638.09
2022-10-07T22:48:58.163Z,100627.69
2022-10-07T22:51:28.439Z,100622.66
2022-10-07T22:53:56.852Z,100619.38
2022-10-07T22:56:24.910Z,100628.78
2022-10-07T22:59:01.611Z,100613.66
2022-10-07T23:01:31.203Z,100612.81
2022-10-07T23:04:03.189Z,100615.50
2022-10-07T23:06:35.183Z,100622.47
2022-10-07T23:09:03.804Z,100612.13
2022-10-07T23:11:30.918Z,100611.78
2022-10-07T23:13:57.508Z,100604.47
2022-10-07T23:16:28.002Z,100604.59
2022-10-07T23:18:54.761Z,100606.25
2022-10-07T23:21:25.536Z,100606.34
2022-10-07T23:24:01.679Z,100609.72
2022-10-07T23:26:33.378Z,100609.72
2022-10-07T23:29:01.032Z,100598.88
2022-10-07T23:31:29.259Z,100596.44
2022-10-07T23:33:57.109Z,100602.69
2022-10-07T23:36:24.963Z,100602.09
2022-10-07T23:38:52.464Z,100591.53
2022-10-07T23:41:21.917Z,100593.97
2022-10-07T23:43:50.578Z,100590.13
2022-10-07T23:46:19.075Z,100587.41
2022-10-07T23:48:45.668Z,100576.25
2022-10-07T23:51:13.829Z,100579.19
2022-10-07T23:53:40.578Z,100579.69
2022-10-07T23:56:07.649Z,100577.44
2022-10-07T23:58:34.652Z,100577.38
